Time;durP1;ratioP1;P1;durP2;ratioP2;P2;SDS_P1;SDS_P2;PMS_P1;PMS_P2;Temp;Humidity;BMP_temperature;BMP_pressure;BME280_temperature;BME280_humidity;BME280_pressure;Samples;Min_cycle;Max_cycle;Signal;HPM_P1;HPM_P2
2022/03/13 00:02:07;;;;;;;5.72;5.05;;;22.50;37.40;;;;;;4994456;28;20517;-58
2022/03/13 00:04:37;;;;;;;4.93;4.43;;;22.40;37.40;;;;;;4995104;28;20047;-58
2022/03/13 00:07:16;;;;;;;5.03;4.60;;;22.40;37.40;;;;;;4996748;28;20076;-60
2022/03/13 00:09:44;;;;;;;4.82;4.43;;;22.40;37.40;;;;;;5008049;28;20074;-59
2022/03/13 00:12:14;;;;;;;5.43;4.95;;;22.40;37.40;;;;;;4993435;28;20116;-58
2022/03/13 00:14:43;;;;;;;5.15;4.70;;;22.30;37.30;;;;;;4993709;28;20089;-58
2022/03/13 00:17:11;;;;;;;4.82;4.43;;;22.30;37.30;;;;;;5011074;28;20225;-58
2022/03/13 00:19:38;;;;;;;5.00;4.60;;;22.30;37.30;;;;;;4996216;28;20049;-59
2022/03/13 00:22:05;;;;;;;5.53;4.80;;;22.30;37.30;;;;;;4994090;28;20046;-57
2022/03/13 00:24:32;;;;;;;5.30;4.90;;;22.30;37.30;;;;;;4997696;28;20045;-58
2022/03/13 00:26:59;;;;;;;5.22;4.72;;;22.20;37.20;;;;;;4996678;28;20050;-59
2022/03/13 00:29:26;;;;;;;5.28;4.78;;;22.20;37.20;;;;;;4995726;28;20110;-58
2022/03/13 00:31:51;;;;;;;5.50;5.00;;;22.20;37.30;;;;;;4995234;28;20050;-59
2022/03/13 00:34:17;;;;;;;5.07;4.68;;;22.20;37.20;;;;;;4995409;28;20761;-59
2022/03/13 00:36:42;;;;;;;5.53;4.25;;;22.20;37.20;;;;;;4994297;28;20046;-59
2022/03/13 00:39:09;;;;;;;5.85;4.50;;;22.20;37.20;;;;;;4995707;28;20129;-59
2022/03/13 00:41:35;;;;;;;5.10;4.70;;;22.10;37.20;;;;;;4994098;28;20060;-59
2022/03/13 00:44:01;;;;;;;5.00;4.60;;;22.10;37.10;;;;;;4992637;28;20398;-59
2022/03/13 00:46:26;;;;;;;5.15;4.57;;;22.10;37.20;;;;;;4994703;28;20038;-59
2022/03/13 00:48:52;;;;;;;5.32;4.82;;;22.10;37.20;;;;;;4994807;28;20050;-59
2022/03/13 00:51:18;;;;;;;5.55;5.05;;;22.10;37.20;;;;;;4990787;28;20068;-59
2022/03/13 00:53:44;;;;;;;4.68;4.28;;;22.10;37.10;;;;;;4994170;28;20037;-58
2022/03/13 00:56:10;;;;;;;5.10;4.68;;;22.00;37.10;;;;;;5008413;28;20060;-59
2022/03/13 00:58:38;;;;;;;5.72;4.97;;;22.10;37.10;;;;;;4993964;28;20812;-59
2022/03/13 01:01:04;;;;;;;5.20;4.78;;;22.00;37.10;;;;;;4992414;28;20054;-60
2022/03/13 01:03:45;;;;;;;5.07;4.53;;;22.00;37.10;;;;;;4992290;28;20046;-59
2022/03/13 01:06:11;;;;;;;5.57;4.93;;;22.00;37.10;;;;;;4992688;28;20073;-59
2022/03/13 01:08:36;;;;;;;5.53;4.95;;;22.00;37.20;;;;;;4993449;28;20046;-58
2022/03/13 01:11:04;;;;;;;5.10;4.70;;;21.90;37.10;;;;;;4992074;28;20102;-59
2022/03/13 01:13:30;;;;;;;5.50;4.72;;;21.90;37.10;;;;;;4992824;28;20125;-60
2022/03/13 01:16:21;;;;;;;5.40;4.90;;;21.90;37.10;;;;;;4993472;28;20114;-59
2022/03/13 01:18:58;;;;;;;4.75;4.35;;;21.90;37.10;;;;;;4996362;28;20054;-59
2022/03/13 01:21:26;;;;;;;4.60;4.20;;;21.90;37.10;;;;;;4992503;28;20610;-59
2022/03/13 01:24:17;;;;;;;5.25;4.80;;;21.80;37.10;;;;;;4995434;28;20050;-60
2022/03/13 01:26:42;;;;;;;;;;;21.80;37.10;;;;;;4995187;28;20125;-58
2022/03/13 01:29:14;;;;;;;5.60;5.00;;;21.80;37.00;;;;;;4994213;28;20071;-59
2022/03/13 01:31:43;;;;;;;4.95;4.55;;;21.80;37.20;;;;;;4993213;28;20111;-59
2022/03/13 01:34:11;;;;;;;4.90;4.50;;;21.80;37.20;;;;;;4994773;28;20049;-58
2022/03/13 01:36:37;;;;;;;5.18;4.68;;;21.80;37.20;;;;;;4990926;28;20057;-62
2022/03/13 01:39:04;;;;;;;5.80;4.78;;;21.70;37.00;;;;;;4992342;28;20049;-60
2022/03/13 01:41:34;;;;;;;5.45;4.68;;;21.80;37.10;;;;;;4999918;28;20120;-59
2022/03/13 01:44:01;;;;;;;5.30;4.80;;;21.70;37.10;;;;;;4993588;28;20050;-59
2022/03/13 01:46:27;;;;;;;4.30;4.00;;;21.70;37.10;;;;;;4992222;28;20050;-59
2022/03/13 01:49:04;;;;;;;5.00;4.50;;;21.70;37.10;;;;;;5008386;28;20056;-60
2022/03/13 01:51:32;;;;;;;5.20;4.70;;;21.70;37.00;;;;;;4993054;28;20053;-58
2022/03/13 01:54:07;;;;;;;4.93;4.53;;;21.70;37.00;;;;;;4994798;28;20562;-59
2022/03/13 01:56:35;;;;;;;5.30;4.90;;;21.70;37.00;;;;;;4994135;28;20046;-59
2022/03/13 01:59:01;;;;;;;5.00;4.50;;;21.60;37.80;;;;;;4993360;28;20054;-59
2022/03/13 02:01:28;;;;;;;4.47;4.07;;;21.60;37.00;;;;;;4992910;28;20050;-58
2022/03/13 02:03:54;;;;;;;4.93;4.53;;;21.60;37.00;;;;;;4996584;28;20082;-59
2022/03/13 02:06:21;;;;;;;5.38;4.88;;;21.60;37.00;;;;;;4994071;28;20054;-59
2022/03/13 02:08:47;;;;;;;4.75;4.35;;;21.60;37.10;;;;;;4991501;28;20086;-58
2022/03/13 02:11:21;;;;;;;4.80;4.40;;;21.60;37.10;;;;;;4993833;28;20054;-58
2022/03/13 02:13:48;;;;;;;5.00;4.50;;;21.60;37.00;;;;;;4993568;28;20049;-59
2022/03/13 02:16:14;;;;;;;4.90;4.50;;;21.60;37.00;;;;;;4994094;28;20073;-58
2022/03/13 02:18:41;;;;;;;5.05;4.65;;;21.50;37.00;;;;;;4991909;28;20453;-58
2022/03/13 02:21:08;;;;;;;4.88;4.38;;;21.50;37.00;;;;;;4991458;28;20097;-59
2022/03/13 02:23:34;;;;;;;5.20;4.80;;;21.60;37.00;;;;;;4990479;28;20206;-60
2022/03/13 02:26:02;;;;;;;4.85;4.45;;;21.50;37.00;;;;;;4988195;28;20478;-59
2022/03/13 02:28:31;;;;;;;4.90;4.50;;;21.50;37.00;;;;;;4992641;28;20062;-59
2022/03/13 02:31:27;;;;;;;4.88;4.47;;;21.50;37.00;;;;;;5009222;28;20056;-60
2022/03/13 02:33:54;;;;;;;5.15;4.47;;;21.50;36.90;;;;;;4969146;28;20058;-58
2022/03/13 02:36:32;;;;;;;5.50;4.97;;;21.40;37.00;;;;;;4993949;28;20044;-58
2022/03/13 02:39:02;;;;;;;4.53;4.13;;;21.50;37.00;;;;;;4990544;28;20046;-59
2022/03/13 02:41:28;;;;;;;5.13;4.50;;;21.50;37.00;;;;;;4990548;28;20050;-59
2022/03/13 02:43:54;;;;;;;4.78;4.38;;;21.40;37.00;;;;;;4992735;28;20368;-58
2022/03/13 02:46:42;;;;;;;4.80;4.40;;;21.40;37.00;;;;;;4991046;28;20062;-59
2022/03/13 02:49:08;;;;;;;4.60;4.20;;;21.40;37.00;;;;;;4993781;28;20146;-59
2022/03/13 02:51:33;;;;;;;4.90;4.35;;;21.40;37.00;;;;;;4994170;28;20561;-58
2022/03/13 02:53:59;;;;;;;4.25;3.90;;;21.40;37.00;;;;;;4991407;28;20045;-59
2022/03/13 02:56:24;;;;;;;5.00;4.57;;;21.40;36.90;;;;;;4993505;28;20038;-58
2022/03/13 02:58:50;;;;;;;5.00;4.60;;;21.40;37.00;;;;;;4993116;28;20367;-59
2022/03/13 03:01:16;;;;;;;4.90;4.50;;;21.40;37.00;;;;;;4987534;28;20050;-59
2022/03/13 03:03:41;;;;;;;4.75;4.20;;;21.30;36.90;;;;;;4992954;28;20053;-59
2022/03/13 03:06:11;;;;;;;4.72;4.32;;;21.30;36.90;;;;;;4988224;28;20062;-60
2022/03/13 03:08:37;;;;;;;4.50;4.20;;;21.30;36.90;;;;;;4990367;28;20104;-59
2022/03/13 03:11:03;;;;;;;4.82;4.43;;;21.30;36.90;;;;;;4991883;28;20697;-60
2022/03/13 03:13:28;;;;;;;4.97;4.57;;;21.30;36.90;;;;;;4991216;28;20053;-58
2022/03/13 03:15:54;;;;;;;4.90;4.47;;;21.30;36.90;;;;;;4989832;28;20050;-59
2022/03/13 03:18:20;;;;;;;5.30;4.82;;;21.30;37.00;;;;;;4991589;28;20058;-59
2022/03/13 03:20:45;;;;;;;4.70;4.30;;;21.30;36.90;;;;;;4991115;28;20052;-58
2022/03/13 03:23:11;;;;;;;4.78;4.43;;;21.30;36.90;;;;;;4993707;28;20050;-58
2022/03/13 03:25:38;;;;;;;5.10;4.70;;;21.30;36.90;;;;;;4993260;28;20049;-58
2022/03/13 03:28:04;;;;;;;5.28;4.85;;;21.30;36.90;;;;;;4995477;28;20502;-58
2022/03/13 03:30:30;;;;;;;5.10;4.60;;;21.20;36.80;;;;;;5000255;28;20042;-58
2022/03/13 03:32:57;;;;;;;5.13;4.63;;;21.30;36.80;;;;;;4994777;28;20153;-58
2022/03/13 03:35:24;;;;;;;5.10;4.57;;;21.20;36.80;;;;;;4995508;28;20042;-58
2022/03/13 03:37:51;;;;;;;4.88;4.45;;;21.20;36.80;;;;;;4996137;28;20125;-58
2022/03/13 03:40:24;;;;;;;5.80;4.47;;;21.20;36.80;;;;;;4995155;28;20099;-58
2022/03/13 03:42:49;;;;;;;4.97;4.50;;;21.20;36.80;;;;;;4996137;28;20129;-59
2022/03/13 03:45:18;;;;;;;5.40;4.90;;;21.20;36.80;;;;;;5010549;28;20159;-58
2022/03/13 03:47:45;;;;;;;4.97;4.57;;;21.20;36.80;;;;;;5002447;28;20129;-58
2022/03/13 03:50:11;;;;;;;5.00;4.60;;;21.20;36.80;;;;;;4995650;28;20837;-59
2022/03/13 03:52:36;;;;;;;4.80;4.40;;;21.20;36.80;;;;;;4995726;28;20049;-59
2022/03/13 03:55:02;;;;;;;5.10;4.60;;;21.20;36.80;;;;;;4995456;28;20105;-59
2022/03/13 03:57:27;;;;;;;4.70;4.30;;;21.10;36.80;;;;;;5000158;28;20054;-57
2022/03/13 03:59:53;;;;;;;5.15;4.65;;;21.10;36.80;;;;;;4993727;28;20041;-59
2022/03/13 04:02:19;;;;;;;5.18;4.63;;;21.20;36.80;;;;;;4993702;28;20054;-57
2022/03/13 04:04:46;;;;;;;5.25;4.65;;;21.10;36.70;;;;;;4995071;28;20096;-58
2022/03/13 04:07:13;;;;;;;5.07;4.60;;;21.10;36.70;;;;;;4992230;28;20655;-59
2022/03/13 04:09:38;;;;;;;4.63;4.22;;;21.10;36.70;;;;;;4995644;28;20046;-59
2022/03/13 04:12:08;;;;;;;5.00;4.60;;;21.10;36.80;;;;;;4985796;28;20083;-60
2022/03/13 04:14:37;;;;;;;4.85;4.45;;;21.10;36.70;;;;;;4995689;28;20117;-59
2022/03/13 04:17:07;;;;;;;4.82;4.43;;;21.10;36.70;;;;;;4993481;28;20406;-58
2022/03/13 04:19:33;;;;;;;5.22;4.82;;;21.10;36.70;;;;;;4992608;28;20046;-59
2022/03/13 04:21:59;;;;;;;4.70;4.30;;;21.10;36.70;;;;;;4995369;28;20065;-59
2022/03/13 04:24:24;;;;;;;5.38;4.97;;;21.10;36.70;;;;;;5001306;28;20050;-59
2022/03/13 04:26:51;;;;;;;4.60;4.20;;;21.10;36.70;;;;;;4995066;28;20054;-58
2022/03/13 04:29:18;;;;;;;5.65;4.38;;;21.10;36.70;;;;;;5011193;28;20394;-59
2022/03/13 04:31:46;;;;;;;4.93;4.53;;;21.10;36.70;;;;;;4994455;28;20049;-59
2022/03/13 04:34:11;;;;;;;4.63;4.28;;;21.00;36.60;;;;;;4996291;28;20111;-59
2022/03/13 04:36:38;;;;;;;4.85;4.45;;;21.00;36.70;;;;;;4992310;28;20054;-58
2022/03/13 04:39:05;;;;;;;5.00;4.60;;;21.00;36.60;;;;;;4994857;28;20046;-59
2022/03/13 04:41:32;;;;;;;4.82;4.43;;;21.00;36.60;;;;;;4996229;28;20089;-58
2022/03/13 04:43:57;;;;;;;4.70;4.30;;;21.00;36.50;;;;;;4991896;28;20060;-58
2022/03/13 04:46:23;;;;;;;5.10;4.65;;;21.00;36.50;;;;;;4993635;28;20066;-59
2022/03/13 04:48:49;;;;;;;5.38;4.15;;;21.00;36.50;;;;;;4994782;28;20050;-59
2022/03/13 04:51:15;;;;;;;4.80;4.40;;;21.00;36.60;;;;;;4992956;28;20054;-59
2022/03/13 04:53:41;;;;;;;4.90;4.40;;;21.00;36.50;;;;;;4996370;28;20104;-59
2022/03/13 04:56:07;;;;;;;4.70;4.30;;;21.00;36.60;;;;;;4995301;28;20125;-60
2022/03/13 04:58:33;;;;;;;4.53;4.13;;;21.00;36.50;;;;;;4994148;28;20486;-59
2022/03/13 05:00:58;;;;;;;4.78;4.38;;;20.90;36.50;;;;;;4992177;28;20056;-61
2022/03/13 05:03:26;;;;;;;4.80;4.30;;;20.90;36.40;;;;;;4995221;28;20073;-58
2022/03/13 05:05:53;;;;;;;5.60;4.65;;;20.90;36.40;;;;;;4990190;28;20120;-60
2022/03/13 05:08:18;;;;;;;4.88;4.38;;;20.90;36.40;;;;;;4994344;28;20072;-58
2022/03/13 05:10:46;;;;;;;5.25;4.68;;;20.90;36.40;;;;;;4996091;28;20469;-59
2022/03/13 05:13:14;;;;;;;4.40;4.00;;;20.90;36.50;;;;;;4992064;28;20410;-58
2022/03/13 05:15:41;;;;;;;4.28;3.90;;;20.90;36.50;;;;;;4994140;28;20057;-59
2022/03/13 05:18:07;;;;;;;5.07;4.68;;;20.90;36.40;;;;;;4993661;28;20053;-60
2022/03/13 05:20:34;;;;;;;4.47;4.07;;;20.90;36.40;;;;;;4993133;28;20050;-58
2022/03/13 05:23:00;;;;;;;4.97;4.47;;;20.90;36.40;;;;;;4995547;28;20050;-59
2022/03/13 05:25:30;;;;;;;5.18;4.72;;;20.80;36.40;;;;;;4993800;28;20085;-59
2022/03/13 05:27:56;;;;;;;4.70;4.38;;;20.80;36.40;;;;;;4991892;28;20454;-58
2022/03/13 05:30:21;;;;;;;5.03;4.53;;;20.90;36.40;;;;;;5000544;28;20589;-60
2022/03/13 05:32:48;;;;;;;5.05;4.65;;;20.90;36.40;;;;;;4993276;28;20046;-59
2022/03/13 05:35:15;;;;;;;5.18;4.38;;;20.80;36.30;;;;;;4994109;28;20054;-58
2022/03/13 05:37:41;;;;;;;4.90;4.40;;;20.80;36.30;;;;;;4995083;28;20573;-58
2022/03/13 05:40:07;;;;;;;5.07;4.68;;;20.80;36.30;;;;;;4994079;28;20041;-58
2022/03/13 05:42:33;;;;;;;4.70;4.18;;;20.80;36.30;;;;;;4993848;28;20054;-58
2022/03/13 05:44:59;;;;;;;5.90;4.68;;;20.80;36.40;;;;;;4992069;28;20053;-58
2022/03/13 05:47:25;;;;;;;6.38;5.03;;;20.80;36.40;;;;;;4992200;28;20494;-59
2022/03/13 05:49:50;;;;;;;5.40;4.90;;;20.80;36.40;;;;;;4993856;28;20092;-59
2022/03/13 05:52:16;;;;;;;6.20;5.20;;;20.80;36.30;;;;;;4993268;28;20383;-58
2022/03/13 05:54:43;;;;;;;6.10;5.50;;;20.70;36.30;;;;;;4994919;28;20072;-58
2022/03/13 05:57:10;;;;;;;5.38;4.85;;;20.70;36.20;;;;;;4994494;28;20494;-58
2022/03/13 05:59:36;;;;;;;6.30;5.22;;;20.70;36.20;;;;;;4992936;28;20041;-58
2022/03/13 06:02:07;;;;;;;5.35;4.95;;;20.70;36.20;;;;;;4990198;28;20041;-59
2022/03/13 06:04:37;;;;;;;5.80;5.28;;;20.70;36.30;;;;;;4993849;28;20046;-59
2022/03/13 06:07:04;;;;;;;5.53;5.10;;;20.60;36.20;;;;;;4993672;28;20129;-60
2022/03/13 06:09:30;;;;;;;5.75;5.25;;;20.70;36.30;;;;;;4992498;28;20048;-60
2022/03/13 06:11:57;;;;;;;5.90;4.88;;;20.60;36.30;;;;;;4993039;28;20156;-59
2022/03/13 06:14:23;;;;;;;5.18;4.78;;;20.60;36.80;;;;;;4989740;28;20520;-60
2022/03/13 06:16:49;;;;;;;5.28;4.88;;;20.60;36.80;;;;;;4993146;28;20157;-60
2022/03/13 06:19:14;;;;;;;5.57;5.07;;;20.60;36.80;;;;;;4990849;28;20055;-59
2022/03/13 06:21:42;;;;;;;6.40;5.50;;;20.50;36.70;;;;;;4973938;28;20129;-60
2022/03/13 06:24:08;;;;;;;5.65;5.05;;;20.60;36.80;;;;;;4992453;28;20054;-61
2022/03/13 06:26:34;;;;;;;5.40;4.93;;;20.50;36.80;;;;;;4993857;28;20462;-59
2022/03/13 06:29:00;;;;;;;5.70;5.13;;;20.50;36.70;;;;;;4993112;28;20038;-58
2022/03/13 06:31:26;;;;;;;5.40;4.90;;;20.50;37.50;;;;;;4991260;28;20058;-58
2022/03/13 06:33:52;;;;;;;6.05;5.10;;;20.50;36.90;;;;;;4994582;28;20112;-59
2022/03/13 06:36:17;;;;;;;5.97;5.43;;;20.40;36.80;;;;;;4995203;28;20050;-59
2022/03/13 06:38:43;;;;;;;6.32;5.72;;;20.40;36.80;;;;;;4993249;28;20042;-58
2022/03/13 06:41:08;;;;;;;6.05;5.45;;;20.40;36.80;;;;;;4990239;28;20104;-60
2022/03/13 06:43:34;;;;;;;6.28;5.68;;;20.40;36.80;;;;;;4994725;28;20085;-59
2022/03/13 06:46:01;;;;;;;5.40;4.90;;;20.40;36.80;;;;;;4992836;28;20527;-58
2022/03/13 06:48:27;;;;;;;7.80;5.40;;;20.40;37.00;;;;;;4993171;28;20060;-58
2022/03/13 06:50:53;;;;;;;6.00;5.40;;;20.40;37.60;;;;;;4993091;28;20054;-58
2022/03/13 06:53:19;;;;;;;8.07;5.53;;;20.40;37.60;;;;;;4995362;28;20069;-59
2022/03/13 06:55:44;;;;;;;6.47;5.65;;;20.40;37.60;;;;;;4993901;28;20041;-60
2022/03/13 06:58:10;;;;;;;5.90;5.30;;;20.50;37.60;;;;;;4993316;28;20399;-59
2022/03/13 07:00:36;;;;;;;6.20;5.70;;;20.50;37.40;;;;;;4996190;28;20049;-60
2022/03/13 07:03:01;;;;;;;6.05;5.43;;;20.40;37.20;;;;;;4996915;28;20096;-59
2022/03/13 07:05:27;;;;;;;10.30;5.78;;;20.40;37.20;;;;;;4997081;28;20497;-58
2022/03/13 07:07:54;;;;;;;6.55;5.95;;;20.40;37.10;;;;;;4997173;28;20082;-58
2022/03/13 07:10:20;;;;;;;6.03;5.43;;;20.40;37.00;;;;;;4995173;28;20145;-58
2022/03/13 07:12:46;;;;;;;5.82;5.25;;;20.40;36.90;;;;;;4995224;28;20043;-60
2022/03/13 07:15:13;;;;;;;6.40;5.78;;;20.40;37.10;;;;;;4995388;28;20035;-58
2022/03/13 07:17:41;;;;;;;7.20;5.22;;;20.40;37.30;;;;;;4994438;28;20082;-59
2022/03/13 07:20:08;;;;;;;9.95;5.50;;;20.40;37.20;;;;;;4995314;28;20301;-57
2022/03/13 07:22:33;;;;;;;7.25;5.30;;;20.40;37.30;;;;;;4996006;28;20050;-59
2022/03/13 07:24:59;;;;;;;6.00;5.50;;;20.40;37.30;;;;;;4996874;28;20059;-60
2022/03/13 07:27:24;;;;;;;6.18;5.38;;;20.40;37.20;;;;;;4993866;28;20046;-58
2022/03/13 07:29:51;;;;;;;5.82;5.20;;;20.50;37.30;;;;;;4993573;28;20085;-58
2022/03/13 07:32:17;;;;;;;5.68;5.18;;;20.40;37.10;;;;;;4997963;28;20054;-58
2022/03/13 07:34:43;;;;;;;9.20;6.30;;;20.40;37.10;;;;;;4994953;28;20822;-58
2022/03/13 07:37:10;;;;;;;6.95;6.22;;;20.40;37.00;;;;;;4995555;28;20058;-58
2022/03/13 07:39:37;;;;;;;6.68;5.78;;;20.40;36.80;;;;;;4998257;28;20050;-58
2022/03/13 07:42:03;;;;;;;6.70;6.10;;;20.40;36.90;;;;;;4993994;28;20859;-59
2022/03/13 07:44:29;;;;;;;6.22;5.35;;;20.30;36.90;;;;;;4996174;28;20052;-58
2022/03/13 07:46:55;;;;;;;7.00;6.30;;;20.30;36.80;;;;;;4998750;28;20050;-59
2022/03/13 07:49:20;;;;;;;6.40;5.90;;;20.30;36.70;;;;;;4997263;28;20046;-58
2022/03/13 07:51:47;;;;;;;6.75;5.78;;;20.30;36.70;;;;;;4994793;28;20065;-58
2022/03/13 07:54:14;;;;;;;6.53;6.00;;;20.30;36.70;;;;;;4995136;28;20046;-58
2022/03/13 07:56:39;;;;;;;6.13;5.63;;;20.30;36.70;;;;;;4992744;28;20628;-58
2022/03/13 07:59:05;;;;;;;6.00;5.50;;;20.30;36.60;;;;;;4998250;28;20058;-58
2022/03/13 08:01:31;;;;;;;7.25;5.95;;;20.30;36.60;;;;;;4992535;28;20042;-59
2022/03/13 08:03:56;;;;;;;6.55;5.95;;;20.30;36.60;;;;;;4997061;28;20050;-59
2022/03/13 08:06:23;;;;;;;6.85;6.25;;;20.30;36.60;;;;;;4997169;28;20050;-59
2022/03/13 08:08:49;;;;;;;6.63;5.85;;;20.30;36.60;;;;;;4993510;28;20053;-58
2022/03/13 08:11:15;;;;;;;6.20;5.60;;;20.30;36.50;;;;;;4992836;28;20049;-58
2022/03/13 08:13:41;;;;;;;6.82;6.10;;;20.30;36.60;;;;;;4994153;28;20042;-59
2022/03/13 08:16:06;;;;;;;8.02;6.20;;;20.30;36.70;;;;;;4994913;28;20046;-58
2022/03/13 08:18:36;;;;;;;8.43;6.07;;;20.30;36.60;;;;;;4994898;28;20409;-57
2022/03/13 08:21:02;;;;;;;6.57;5.60;;;20.30;36.70;;;;;;4995299;28;20046;-58
2022/03/13 08:23:27;;;;;;;5.68;5.18;;;20.30;36.80;;;;;;4995514;28;20394;-57
2022/03/13 08:25:53;;;;;;;6.13;4.85;;;20.30;36.90;;;;;;4993829;28;20504;-58
2022/03/13 08:28:18;;;;;;;5.80;5.30;;;20.30;36.90;;;;;;5008962;28;20116;-59
2022/03/13 08:30:44;;;;;;;6.43;5.10;;;20.30;37.00;;;;;;4994489;28;20050;-60
2022/03/13 08:33:09;;;;;;;5.50;5.00;;;20.40;37.20;;;;;;4990849;28;20045;-57
2022/03/13 08:35:35;;;;;;;6.65;4.70;;;20.40;37.20;;;;;;4993315;28;20050;-58
2022/03/13 08:38:00;;;;;;;5.60;5.10;;;20.40;37.40;;;;;;4990849;28;20137;-58
2022/03/13 08:40:26;;;;;;;5.50;5.00;;;20.40;37.20;;;;;;4992542;28;20042;-58
2022/03/13 08:42:53;;;;;;;5.25;4.78;;;20.40;37.20;;;;;;4994248;28;20057;-58
2022/03/13 08:45:19;;;;;;;4.75;4.25;;;20.40;37.10;;;;;;4997192;28;20061;-60
2022/03/13 08:47:46;;;;;;;6.88;4.55;;;20.40;37.30;;;;;;4999332;28;20050;-59
2022/03/13 08:50:13;;;;;;;5.13;4.55;;;20.40;37.30;;;;;;4991164;28;20116;-58
2022/03/13 08:52:39;;;;;;;7.22;5.10;;;20.40;37.30;;;;;;4999278;28;20101;-58
2022/03/13 08:55:05;;;;;;;5.50;4.65;;;20.40;37.30;;;;;;4994062;28;20073;-58
2022/03/13 08:57:31;;;;;;;4.95;4.45;;;20.40;37.30;;;;;;4993422;28;20090;-59
2022/03/13 08:59:56;;;;;;;5.78;4.97;;;20.40;37.10;;;;;;4994082;28;20231;-59
2022/03/13 09:02:22;;;;;;;4.68;4.28;;;20.40;37.20;;;;;;4992609;28;20046;-59
2022/03/13 09:04:48;;;;;;;4.97;4.35;;;20.40;37.10;;;;;;4992483;28;20391;-58
2022/03/13 09:07:14;;;;;;;5.38;4.80;;;20.40;37.20;;;;;;4993972;28;20047;-59
2022/03/13 09:09:41;;;;;;;5.45;4.50;;;20.40;37.20;;;;;;4992957;28;20048;-59
2022/03/13 09:12:07;;;;;;;7.20;4.63;;;20.40;37.10;;;;;;4992936;28;20050;-59
2022/03/13 09:14:38;;;;;;;4.78;4.38;;;20.40;37.20;;;;;;4993368;28;20437;-59
2022/03/13 09:17:04;;;;;;;4.40;4.00;;;20.40;37.10;;;;;;4992789;28;20038;-58
2022/03/13 09:19:29;;;;;;;5.10;4.38;;;20.40;37.30;;;;;;4994201;28;20045;-58
2022/03/13 09:21:55;;;;;;;6.35;3.97;;;20.40;37.40;;;;;;5007501;28;20048;-58
2022/03/13 09:24:21;;;;;;;4.43;4.03;;;20.40;38.20;;;;;;4994025;28;20045;-59
2022/03/13 09:26:46;;;;;;;4.60;4.20;;;20.50;37.60;;;;;;4994302;28;20498;-58
2022/03/13 09:29:13;;;;;;;4.32;3.75;;;20.50;37.90;;;;;;4992845;28;20051;-59
2022/03/13 09:31:38;;;;;;;4.35;3.95;;;20.50;37.90;;;;;;4993225;28;20073;-58
2022/03/13 09:34:04;;;;;;;4.25;3.75;;;20.50;38.10;;;;;;4993224;28;20125;-59
2022/03/13 09:36:30;;;;;;;4.47;3.78;;;20.50;38.30;;;;;;4994119;28;20046;-59
2022/03/13 09:38:56;;;;;;;6.32;4.13;;;20.50;38.30;;;;;;4995188;28;20482;-58
2022/03/13 09:41:21;;;;;;;4.03;3.72;;;20.50;38.40;;;;;;4992502;28;20056;-58
2022/03/13 09:43:47;;;;;;;4.35;3.95;;;20.60;38.40;;;;;;4994670;28;20046;-59
2022/03/13 09:46:16;;;;;;;6.25;4.15;;;20.60;38.70;;;;;;4995726;28;20046;-59
2022/03/13 09:48:42;;;;;;;4.55;4.10;;;20.60;38.90;;;;;;4993530;28;20053;-59
2022/03/13 09:51:09;;;;;;;4.70;4.20;;;20.60;39.00;;;;;;4995661;28;20054;-59
2022/03/13 09:53:35;;;;;;;4.43;4.03;;;20.60;39.10;;;;;;4993753;28;20756;-58
2022/03/13 09:56:03;;;;;;;6.85;4.10;;;20.60;39.10;;;;;;4994418;28;20453;-59
2022/03/13 09:58:30;;;;;;;4.50;4.03;;;20.60;39.20;;;;;;4991760;28;20165;-59
2022/03/13 10:00:57;;;;;;;4.50;4.10;;;20.60;39.00;;;;;;4994247;28;20876;-58
2022/03/13 10:03:22;;;;;;;5.13;4.20;;;20.60;38.90;;;;;;4989720;28;20868;-58
2022/03/13 10:05:49;;;;;;;4.00;3.60;;;20.60;38.90;;;;;;4992961;28;20129;-58
2022/03/13 10:08:16;;;;;;;5.38;4.28;;;20.60;38.80;;;;;;4997515;28;20062;-59
2022/03/13 10:10:47;;;;;;;4.88;4.35;;;20.60;38.70;;;;;;4993522;28;20077;-60
2022/03/13 10:13:15;;;;;;;4.35;3.92;;;20.60;38.60;;;;;;4996560;28;20045;-59
2022/03/13 10:15:46;;;;;;;4.70;4.20;;;20.60;38.70;;;;;;4991521;28;20046;-59
2022/03/13 10:18:20;;;;;;;4.70;4.30;;;20.50;38.90;;;;;;4992649;28;20050;-58
2022/03/13 10:20:47;;;;;;;4.95;4.45;;;20.60;39.10;;;;;;4992464;28;20520;-58
2022/03/13 10:23:17;;;;;;;6.15;4.10;;;20.60;39.10;;;;;;4993820;28;20118;-58
2022/03/13 10:25:44;;;;;;;5.68;4.70;;;20.60;39.40;;;;;;4991559;28;20077;-58
2022/03/13 10:28:31;;;;;;;5.75;4.93;;;20.60;39.30;;;;;;4991831;28;20053;-60
2022/03/13 10:30:59;;;;;;;7.38;5.03;;;20.60;40.80;;;;;;4993756;28;20054;-58
2022/03/13 10:33:27;;;;;;;5.25;4.75;;;20.60;40.70;;;;;;4989078;28;20175;-58
2022/03/13 10:36:08;;;;;;;5.80;5.30;;;20.60;40.90;;;;;;4993724;28;20054;-58
2022/03/13 10:38:35;;;;;;;;;;;20.60;41.20;;;;;;4996927;28;20509;-58
2022/03/13 10:41:01;;;;;;;6.53;5.15;;;20.60;41.40;;;;;;4997507;28;20546;-58
2022/03/13 10:43:29;;;;;;;5.22;4.72;;;20.60;41.00;;;;;;4997656;28;20053;-60
2022/03/13 10:45:58;;;;;;;7.22;4.78;;;20.60;40.80;;;;;;4997754;28;20093;-58
2022/03/13 10:48:27;;;;;;;5.03;4.55;;;20.50;40.50;;;;;;5002692;28;20045;-59
2022/03/13 10:50:54;;;;;;;5.70;5.20;;;20.50;40.70;;;;;;4999329;28;20557;-59
2022/03/13 10:53:21;;;;;;;4.97;4.53;;;20.60;40.80;;;;;;4995455;28;20101;-59
2022/03/13 10:56:09;;;;;;;6.88;4.68;;;20.50;40.70;;;;;;4996636;28;20050;-58
2022/03/13 10:58:44;;;;;;;5.78;4.53;;;20.60;40.90;;;;;;4996868;28;20054;-60
2022/03/13 11:01:11;;;;;;;7.95;5.15;;;20.60;40.60;;;;;;5012912;28;20497;-58
2022/03/13 11:03:47;;;;;;;5.43;4.93;;;20.60;40.60;;;;;;4995498;28;20050;-60
2022/03/13 11:06:12;;;;;;;5.07;4.60;;;20.60;40.60;;;;;;4996234;28;20449;-58
2022/03/13 11:08:39;;;;;;;5.28;4.72;;;20.50;40.40;;;;;;4996192;28;20037;-59
2022/03/13 11:11:06;;;;;;;5.22;4.78;;;20.60;40.30;;;;;;5012673;28;20038;-58
2022/03/13 11:13:33;;;;;;;7.53;5.50;;;20.60;40.20;;;;;;4980089;28;20088;-59
2022/03/13 11:15:58;;;;;;;7.05;4.55;;;20.60;40.10;;;;;;4995687;28;20046;-58
2022/03/13 11:18:36;;;;;;;5.63;4.03;;;20.50;39.90;;;;;;4996001;28;20052;-58
2022/03/13 11:21:06;;;;;;;4.20;3.83;;;20.60;40.00;;;;;;4995909;28;20053;-58
2022/03/13 11:23:33;;;;;;;4.68;3.90;;;20.50;39.90;;;;;;4991036;28;20789;-58
2022/03/13 11:26:00;;;;;;;5.20;4.60;;;20.50;40.10;;;;;;4995559;28;20446;-58
2022/03/13 11:28:28;;;;;;;5.15;4.53;;;20.60;40.10;;;;;;4998041;28;20038;-58
2022/03/13 11:30:54;;;;;;;4.97;4.20;;;20.60;40.00;;;;;;4995924;28;20422;-59
2022/03/13 11:33:44;;;;;;;7.75;4.50;;;20.50;39.70;;;;;;4997437;28;20077;-58
2022/03/13 11:36:32;;;;;;;5.78;4.75;;;20.60;39.60;;;;;;4997162;28;20061;-59
2022/03/13 11:39:04;;;;;;;5.60;5.10;;;20.60;39.40;;;;;;4994452;28;20050;-59
2022/03/13 11:41:46;;;;;;;7.00;4.53;;;20.50;39.30;;;;;;4996379;28;20048;-59
2022/03/13 11:44:23;;;;;;;5.82;5.07;;;20.60;39.40;;;;;;4994716;28;20133;-59
2022/03/13 11:46:51;;;;;;;5.50;5.00;;;20.50;39.30;;;;;;4991839;28;20485;-58
2022/03/13 11:49:33;;;;;;;7.07;5.03;;;20.50;39.30;;;;;;4994726;28;20069;-58
2022/03/13 11:52:11;;;;;;;6.10;5.50;;;20.50;39.60;;;;;;4994711;28;20088;-57
2022/03/13 11:54:55;;;;;;;5.97;5.20;;;20.60;39.40;;;;;;4996546;28;20408;-57
2022/03/13 11:57:22;;;;;;;5.43;4.93;;;20.60;39.40;;;;;;4994936;28;20089;-58
2022/03/13 12:00:12;;;;;;;6.15;4.95;;;20.50;39.40;;;;;;4994230;28;20053;-58
2022/03/13 12:02:41;;;;;;;5.63;4.20;;;20.50;39.20;;;;;;5000380;28;20057;-59
2022/03/13 12:05:27;;;;;;;4.72;4.30;;;20.60;39.20;;;;;;4995189;28;20042;-59
2022/03/13 12:07:57;;;;;;;6.90;4.05;;;20.60;39.00;;;;;;4994810;28;20923;-59
2022/03/13 12:10:43;;;;;;;5.13;4.65;;;20.50;39.10;;;;;;4996037;28;20478;-59
2022/03/13 12:13:11;;;;;;;5.10;4.60;;;20.50;40.00;;;;;;4994195;28;20080;-58
2022/03/13 12:15:39;;;;;;;10.05;4.72;;;20.50;39.30;;;;;;4995308;28;20038;-58
2022/03/13 12:18:27;;;;;;;6.40;4.47;;;20.50;39.30;;;;;;4992378;28;20057;-58
2022/03/13 12:21:04;;;;;;;4.97;4.47;;;20.50;39.30;;;;;;4994829;28;20586;-58
2022/03/13 12:23:36;;;;;;;7.68;4.70;;;20.50;39.30;;;;;;4998387;28;20725;-58
2022/03/13 12:26:22;;;;;;;6.00;4.20;;;20.50;39.30;;;;;;4994937;28;20042;-58
2022/03/13 12:28:53;;;;;;;5.95;5.00;;;20.50;39.30;;;;;;4993600;28;20441;-59
2022/03/13 12:31:18;;;;;;;4.38;3.97;;;20.50;39.20;;;;;;4993763;28;20054;-58
2022/03/13 12:33:46;;;;;;;5.30;4.25;;;20.50;39.20;;;;;;4995946;28;20038;-59
2022/03/13 12:36:12;;;;;;;5.65;5.00;;;20.50;39.20;;;;;;4993501;28;20052;-58
2022/03/13 12:38:42;;;;;;;5.38;4.85;;;20.50;39.20;;;;;;4993132;28;20038;-59
2022/03/13 12:41:09;;;;;;;6.03;4.57;;;20.50;39.20;;;;;;5008397;28;20070;-58
2022/03/13 12:43:56;;;;;;;5.07;4.53;;;20.50;39.10;;;;;;4995684;28;20048;-59
2022/03/13 12:46:24;;;;;;;5.38;4.88;;;20.60;39.30;;;;;;4994126;28;20052;-59
2022/03/13 12:48:55;;;;;;;5.00;4.45;;;20.50;39.20;;;;;;5009784;28;20535;-59
2022/03/13 12:51:49;;;;;;;9.20;5.00;;;20.50;39.20;;;;;;4995588;28;20065;-58
2022/03/13 12:54:25;;;;;;;6.32;5.20;;;20.50;39.10;;;;;;4990944;28;20046;-59